sensor_id;sensor_type;location;lat;lon;timestamp;P1;durP1;ratioP1;P2;durP2;ratioP2
13834;SDS011;6988;52.614;13.500;2023-04-24T00:01:50;9.47;;;6.13;;
13834;SDS011;6988;52.614;13.500;2023-04-24T00:06:42;9.50;;;6.23;;
13834;SDS011;6988;52.614;13.500;2023-04-24T00:11:34;8.87;;;6.87;;
13834;SDS011;6988;52.614;13.500;2023-04-24T00:16:25;7.27;;;6.57;;
13834;SDS011;6988;52.614;13.500;2023-04-24T00:21:19;8.47;;;6.20;;
13834;SDS011;6988;52.614;13.500;2023-04-24T00:26:11;7.90;;;6.00;;
13834;SDS011;6988;52.614;13.500;2023-04-24T00:31:03;8.10;;;6.90;;
13834;SDS011;6988;52.614;13.500;2023-04-24T00:35:55;7.57;;;6.77;;
13834;SDS011;6988;52.614;13.500;2023-04-24T00:40:48;9.13;;;6.77;;
13834;SDS011;6988;52.614;13.500;2023-04-24T00:45:40;8.10;;;6.33;;
13834;SDS011;6988;52.614;13.500;2023-04-24T00:50:32;8.73;;;6.90;;
13834;SDS011;6988;52.614;13.500;2023-04-24T00:55:24;7.03;;;6.33;;
13834;SDS011;6988;52.614;13.500;2023-04-24T01:00:18;8.87;;;7.13;;
13834;SDS011;6988;52.614;13.500;2023-04-24T01:05:11;8.13;;;6.63;;
13834;SDS011;6988;52.614;13.500;2023-04-24T01:10:05;7.80;;;7.00;;
13834;SDS011;6988;52.614;13.500;2023-04-24T01:14:59;10.80;;;6.90;;
13834;SDS011;6988;52.614;13.500;2023-04-24T01:19:53;8.40;;;7.40;;
13834;SDS011;6988;52.614;13.500;2023-04-24T01:24:49;8.97;;;7.40;;
13834;SDS011;6988;52.614;13.500;2023-04-24T01:29:41;8.27;;;7.03;;
13834;SDS011;6988;52.614;13.500;2023-04-24T01:34:34;8.03;;;7.23;;
13834;SDS011;6988;52.614;13.500;2023-04-24T01:39:26;9.10;;;8.07;;
13834;SDS011;6988;52.614;13.500;2023-04-24T01:44:20;9.40;;;7.13;;
13834;SDS011;6988;52.614;13.500;2023-04-24T01:49:12;10.63;;;7.80;;
13834;SDS011;6988;52.614;13.500;2023-04-24T01:54:03;9.93;;;8.83;;
13834;SDS011;6988;52.614;13.500;2023-04-24T01:58:56;10.43;;;8.50;;
13834;SDS011;6988;52.614;13.500;2023-04-24T02:03:51;9.70;;;8.50;;
13834;SDS011;6988;52.614;13.500;2023-04-24T02:08:43;8.63;;;7.73;;
13834;SDS011;6988;52.614;13.500;2023-04-24T02:13:35;11.10;;;7.63;;
13834;SDS011;6988;52.614;13.500;2023-04-24T02:18:26;8.63;;;7.80;;
13834;SDS011;6988;52.614;13.500;2023-04-24T02:23:20;7.83;;;7.03;;
13834;SDS011;6988;52.614;13.500;2023-04-24T02:28:11;9.23;;;7.37;;
13834;SDS011;6988;52.614;13.500;2023-04-24T02:33:03;8.60;;;7.67;;
13834;SDS011;6988;52.614;13.500;2023-04-24T02:37:55;9.57;;;7.90;;
13834;SDS011;6988;52.614;13.500;2023-04-24T02:42:48;8.33;;;7.30;;
13834;SDS011;6988;52.614;13.500;2023-04-24T02:47:41;7.77;;;7.00;;
13834;SDS011;6988;52.614;13.500;2023-04-24T02:52:32;8.83;;;7.63;;
13834;SDS011;6988;52.614;13.500;2023-04-24T02:57:24;7.67;;;6.60;;
13834;SDS011;6988;52.614;13.500;2023-04-24T03:02:17;7.33;;;6.60;;
13834;SDS011;6988;52.614;13.500;2023-04-24T03:07:10;7.40;;;6.57;;
13834;SDS011;6988;52.614;13.500;2023-04-24T03:12:02;9.43;;;6.60;;
13834;SDS011;6988;52.614;13.500;2023-04-24T03:16:54;10.00;;;6.80;;
13834;SDS011;6988;52.614;13.500;2023-04-24T03:21:48;7.87;;;6.87;;
13834;SDS011;6988;52.614;13.500;2023-04-24T03:26:41;7.23;;;6.47;;
13834;SDS011;6988;52.614;13.500;2023-04-24T03:31:51;7.67;;;6.80;;
13834;SDS011;6988;52.614;13.500;2023-04-24T03:36:44;8.50;;;6.57;;
13834;SDS011;6988;52.614;13.500;2023-04-24T03:41:39;9.20;;;7.17;;
13834;SDS011;6988;52.614;13.500;2023-04-24T03:46:35;8.40;;;6.90;;
13834;SDS011;6988;52.614;13.500;2023-04-24T03:51:27;7.17;;;6.40;;
13834;SDS011;6988;52.614;13.500;2023-04-24T03:56:26;9.87;;;6.67;;
13834;SDS011;6988;52.614;13.500;2023-04-24T04:01:19;11.43;;;7.67;;
13834;SDS011;6988;52.614;13.500;2023-04-24T04:06:18;11.03;;;8.10;;
13834;SDS011;6988;52.614;13.500;2023-04-24T04:11:11;11.50;;;7.70;;
13834;SDS011;6988;52.614;13.500;2023-04-24T04:16:03;8.47;;;7.07;;
13834;SDS011;6988;52.614;13.500;2023-04-24T04:20:57;8.40;;;6.87;;
13834;SDS011;6988;52.614;13.500;2023-04-24T04:25:51;9.23;;;7.20;;
13834;SDS011;6988;52.614;13.500;2023-04-24T04:30:46;8.90;;;6.90;;
13834;SDS011;6988;52.614;13.500;2023-04-24T04:35:39;9.37;;;7.87;;
13834;SDS011;6988;52.614;13.500;2023-04-24T04:40:33;7.87;;;7.07;;
13834;SDS011;6988;52.614;13.500;2023-04-24T04:45:28;7.50;;;6.80;;
13834;SDS011;6988;52.614;13.500;2023-04-24T04:50:46;7.90;;;7.00;;
13834;SDS011;6988;52.614;13.500;2023-04-24T04:55:40;8.50;;;6.40;;
13834;SDS011;6988;52.614;13.500;2023-04-24T05:00:38;8.20;;;7.30;;
13834;SDS011;6988;52.614;13.500;2023-04-24T05:05:41;9.13;;;8.13;;
13834;SDS011;6988;52.614;13.500;2023-04-24T05:10:36;10.17;;;7.47;;
13834;SDS011;6988;52.614;13.500;2023-04-24T05:15:30;8.93;;;7.03;;
13834;SDS011;6988;52.614;13.500;2023-04-24T05:20:24;7.93;;;7.13;;
13834;SDS011;6988;52.614;13.500;2023-04-24T05:25:16;7.73;;;6.30;;
13834;SDS011;6988;52.614;13.500;2023-04-24T05:30:18;8.60;;;5.80;;
13834;SDS011;6988;52.614;13.500;2023-04-24T05:35:11;7.20;;;6.03;;
13834;SDS011;6988;52.614;13.500;2023-04-24T05:40:04;8.17;;;6.00;;
13834;SDS011;6988;52.614;13.500;2023-04-24T05:44:58;6.07;;;5.13;;
13834;SDS011;6988;52.614;13.500;2023-04-24T05:49:50;5.90;;;4.60;;
13834;SDS011;6988;52.614;13.500;2023-04-24T05:54:44;5.33;;;4.13;;
13834;SDS011;6988;52.614;13.500;2023-04-24T05:59:39;4.53;;;3.87;;
13834;SDS011;6988;52.614;13.500;2023-04-24T06:04:32;6.00;;;3.53;;
13834;SDS011;6988;52.614;13.500;2023-04-24T06:09:25;3.90;;;3.30;;
13834;SDS011;6988;52.614;13.500;2023-04-24T06:14:18;4.27;;;2.93;;
13834;SDS011;6988;52.614;13.500;2023-04-24T06:19:34;5.13;;;2.77;;
13834;SDS011;6988;52.614;13.500;2023-04-24T06:24:27;4.23;;;2.37;;
13834;SDS011;6988;52.614;13.500;2023-04-24T06:29:20;4.23;;;2.40;;
13834;SDS011;6988;52.614;13.500;2023-04-24T06:34:12;3.80;;;2.27;;
13834;SDS011;6988;52.614;13.500;2023-04-24T06:39:04;3.93;;;2.20;;
13834;SDS011;6988;52.614;13.500;2023-04-24T06:43:56;2.97;;;2.07;;
13834;SDS011;6988;52.614;13.500;2023-04-24T06:48:49;4.30;;;2.07;;
13834;SDS011;6988;52.614;13.500;2023-04-24T06:53:41;2.60;;;1.87;;
13834;SDS011;6988;52.614;13.500;2023-04-24T06:58:33;2.77;;;1.80;;
13834;SDS011;6988;52.614;13.500;2023-04-24T07:03:25;2.40;;;1.77;;
13834;SDS011;6988;52.614;13.500;2023-04-24T07:08:18;3.60;;;1.57;;
13834;SDS011;6988;52.614;13.500;2023-04-24T07:13:11;4.27;;;1.43;;
13834;SDS011;6988;52.614;13.500;2023-04-24T07:18:03;2.30;;;1.20;;
13834;SDS011;6988;52.614;13.500;2023-04-24T07:22:54;1.60;;;1.17;;
13834;SDS011;6988;52.614;13.500;2023-04-24T07:27:47;3.27;;;1.20;;
13834;SDS011;6988;52.614;13.500;2023-04-24T07:32:40;2.50;;;1.23;;
13834;SDS011;6988;52.614;13.500;2023-04-24T07:37:31;1.73;;;0.93;;
13834;SDS011;6988;52.614;13.500;2023-04-24T07:42:23;1.03;;;0.60;;
13834;SDS011;6988;52.614;13.500;2023-04-24T07:47:16;1.73;;;0.57;;
13834;SDS011;6988;52.614;13.500;2023-04-24T07:52:08;1.47;;;0.73;;
13834;SDS011;6988;52.614;13.500;2023-04-24T07:57:00;1.03;;;0.67;;
13834;SDS011;6988;52.614;13.500;2023-04-24T08:01:52;2.10;;;0.80;;
13834;SDS011;6988;52.614;13.500;2023-04-24T08:06:45;1.17;;;0.70;;
13834;SDS011;6988;52.614;13.500;2023-04-24T08:11:38;0.90;;;0.70;;
13834;SDS011;6988;52.614;13.500;2023-04-24T08:16:30;1.03;;;0.67;;
13834;SDS011;6988;52.614;13.500;2023-04-24T08:21:23;1.17;;;0.70;;
13834;SDS011;6988;52.614;13.500;2023-04-24T08:26:18;0.40;;;0.40;;
13834;SDS011;6988;52.614;13.500;2023-04-24T08:31:10;1.37;;;0.63;;
13834;SDS011;6988;52.614;13.500;2023-04-24T08:36:02;1.13;;;0.60;;
13834;SDS011;6988;52.614;13.500;2023-04-24T08:40:55;0.83;;;0.60;;
13834;SDS011;6988;52.614;13.500;2023-04-24T08:45:52;1.30;;;0.70;;
13834;SDS011;6988;52.614;13.500;2023-04-24T08:50:46;0.87;;;0.50;;
13834;SDS011;6988;52.614;13.500;2023-04-24T08:55:41;0.90;;;0.50;;
13834;SDS011;6988;52.614;13.500;2023-04-24T09:00:38;2.27;;;0.77;;
13834;SDS011;6988;52.614;13.500;2023-04-24T09:05:37;0.67;;;0.60;;
13834;SDS011;6988;52.614;13.500;2023-04-24T09:10:30;2.57;;;0.40;;
13834;SDS011;6988;52.614;13.500;2023-04-24T09:15:22;0.60;;;0.50;;
13834;SDS011;6988;52.614;13.500;2023-04-24T09:20:15;0.90;;;0.67;;
13834;SDS011;6988;52.614;13.500;2023-04-24T09:25:09;1.03;;;0.53;;
13834;SDS011;6988;52.614;13.500;2023-04-24T09:30:02;2.17;;;0.57;;
13834;SDS011;6988;52.614;13.500;2023-04-24T09:40:11;0.63;;;0.43;;
13834;SDS011;6988;52.614;13.500;2023-04-24T09:45:08;1.80;;;0.60;;
13834;SDS011;6988;52.614;13.500;2023-04-24T09:50:01;3.07;;;0.50;;
13834;SDS011;6988;52.614;13.500;2023-04-24T09:55:02;0.67;;;0.60;;
13834;SDS011;6988;52.614;13.500;2023-04-24T10:00:07;0.87;;;0.50;;
13834;SDS011;6988;52.614;13.500;2023-04-24T10:05:01;1.33;;;0.60;;
13834;SDS011;6988;52.614;13.500;2023-04-24T10:09:54;1.40;;;0.80;;
13834;SDS011;6988;52.614;13.500;2023-04-24T10:14:47;1.27;;;0.60;;
13834;SDS011;6988;52.614;13.500;2023-04-24T10:19:42;1.67;;;0.63;;
13834;SDS011;6988;52.614;13.500;2023-04-24T10:24:35;3.23;;;0.90;;
13834;SDS011;6988;52.614;13.500;2023-04-24T10:29:28;0.83;;;0.70;;
13834;SDS011;6988;52.614;13.500;2023-04-24T10:34:25;2.17;;;0.60;;
13834;SDS011;6988;52.614;13.500;2023-04-24T10:39:18;1.87;;;0.70;;
13834;SDS011;6988;52.614;13.500;2023-04-24T10:44:14;1.63;;;0.60;;
13834;SDS011;6988;52.614;13.500;2023-04-24T10:49:07;1.13;;;0.60;;
13834;SDS011;6988;52.614;13.500;2023-04-24T10:54:04;0.80;;;0.60;;
13834;SDS011;6988;52.614;13.500;2023-04-24T10:59:23;2.07;;;0.70;;
13834;SDS011;6988;52.614;13.500;2023-04-24T11:04:21;1.27;;;0.67;;
13834;SDS011;6988;52.614;13.500;2023-04-24T11:09:22;0.83;;;0.47;;
13834;SDS011;6988;52.614;13.500;2023-04-24T11:14:18;0.63;;;0.53;;
13834;SDS011;6988;52.614;13.500;2023-04-24T11:19:18;1.67;;;0.80;;
13834;SDS011;6988;52.614;13.500;2023-04-24T11:24:29;1.83;;;0.60;;
13834;SDS011;6988;52.614;13.500;2023-04-24T11:29:41;1.70;;;0.60;;
13834;SDS011;6988;52.614;13.500;2023-04-24T11:34:36;0.77;;;0.40;;
13834;SDS011;6988;52.614;13.500;2023-04-24T11:39:37;3.03;;;0.50;;
13834;SDS011;6988;52.614;13.500;2023-04-24T11:44:28;1.23;;;0.50;;
13834;SDS011;6988;52.614;13.500;2023-04-24T11:49:22;1.07;;;0.53;;
13834;SDS011;6988;52.614;13.500;2023-04-24T11:54:15;3.40;;;0.80;;
13834;SDS011;6988;52.614;13.500;2023-04-24T11:59:08;2.10;;;0.70;;
13834;SDS011;6988;52.614;13.500;2023-04-24T12:04:00;2.67;;;1.00;;
13834;SDS011;6988;52.614;13.500;2023-04-24T12:08:52;2.30;;;0.73;;
13834;SDS011;6988;52.614;13.500;2023-04-24T12:13:45;1.27;;;0.50;;
13834;SDS011;6988;52.614;13.500;2023-04-24T12:18:42;0.70;;;0.40;;
13834;SDS011;6988;52.614;13.500;2023-04-24T12:23:36;1.10;;;0.60;;
13834;SDS011;6988;52.614;13.500;2023-04-24T12:28:34;1.57;;;0.60;;
13834;SDS011;6988;52.614;13.500;2023-04-24T12:33:27;1.17;;;0.40;;
13834;SDS011;6988;52.614;13.500;2023-04-24T12:38:26;1.33;;;0.80;;
13834;SDS011;6988;52.614;13.500;2023-04-24T12:43:20;2.03;;;0.83;;
13834;SDS011;6988;52.614;13.500;2023-04-24T12:48:12;2.47;;;0.80;;
13834;SDS011;6988;52.614;13.500;2023-04-24T12:53:05;1.20;;;0.60;;
13834;SDS011;6988;52.614;13.500;2023-04-24T12:57:59;1.93;;;0.60;;
13834;SDS011;6988;52.614;13.500;2023-04-24T13:02:51;2.00;;;0.80;;
13834;SDS011;6988;52.614;13.500;2023-04-24T13:07:44;2.07;;;0.77;;
13834;SDS011;6988;52.614;13.500;2023-04-24T13:12:39;1.73;;;0.50;;
13834;SDS011;6988;52.614;13.500;2023-04-24T13:17:36;1.90;;;0.70;;
13834;SDS011;6988;52.614;13.500;2023-04-24T13:22:28;1.70;;;0.70;;
13834;SDS011;6988;52.614;13.500;2023-04-24T13:27:19;3.60;;;0.60;;
13834;SDS011;6988;52.614;13.500;2023-04-24T13:32:11;0.77;;;0.53;;
13834;SDS011;6988;52.614;13.500;2023-04-24T13:37:06;2.33;;;1.03;;
13834;SDS011;6988;52.614;13.500;2023-04-24T13:41:58;1.33;;;0.73;;
13834;SDS011;6988;52.614;13.500;2023-04-24T13:46:51;1.53;;;0.90;;
13834;SDS011;6988;52.614;13.500;2023-04-24T13:51:46;1.10;;;0.77;;
13834;SDS011;6988;52.614;13.500;2023-04-24T13:56:40;2.27;;;1.00;;
13834;SDS011;6988;52.614;13.500;2023-04-24T14:01:32;1.37;;;0.90;;
13834;SDS011;6988;52.614;13.500;2023-04-24T14:06:24;1.50;;;0.77;;
13834;SDS011;6988;52.614;13.500;2023-04-24T14:11:16;1.10;;;0.63;;
13834;SDS011;6988;52.614;13.500;2023-04-24T14:16:11;0.77;;;0.53;;
13834;SDS011;6988;52.614;13.500;2023-04-24T14:21:03;1.17;;;0.70;;
13834;SDS011;6988;52.614;13.500;2023-04-24T14:25:55;1.47;;;0.83;;
13834;SDS011;6988;52.614;13.500;2023-04-24T14:30:48;1.10;;;0.70;;
13834;SDS011;6988;52.614;13.500;2023-04-24T14:35:42;1.47;;;0.70;;
13834;SDS011;6988;52.614;13.500;2023-04-24T14:40:34;1.27;;;0.80;;
13834;SDS011;6988;52.614;13.500;2023-04-24T14:45:26;1.17;;;0.50;;
13834;SDS011;6988;52.614;13.500;2023-04-24T14:50:19;0.93;;;0.63;;
13834;SDS011;6988;52.614;13.500;2023-04-24T14:55:13;1.50;;;0.57;;
13834;SDS011;6988;52.614;13.500;2023-04-24T15:00:07;0.80;;;0.60;;
13834;SDS011;6988;52.614;13.500;2023-04-24T15:05:01;1.37;;;0.63;;
13834;SDS011;6988;52.614;13.500;2023-04-24T15:09:54;1.53;;;0.70;;
13834;SDS011;6988;52.614;13.500;2023-04-24T15:14:47;1.90;;;0.50;;
13834;SDS011;6988;52.614;13.500;2023-04-24T15:19:39;2.23;;;0.90;;
13834;SDS011;6988;52.614;13.500;2023-04-24T15:24:32;2.40;;;0.70;;
13834;SDS011;6988;52.614;13.500;2023-04-24T15:29:24;3.43;;;0.83;;
13834;SDS011;6988;52.614;13.500;2023-04-24T15:34:18;1.57;;;1.00;;
13834;SDS011;6988;52.614;13.500;2023-04-24T15:39:10;1.03;;;0.80;;
13834;SDS011;6988;52.614;13.500;2023-04-24T15:44:05;1.87;;;0.77;;
13834;SDS011;6988;52.614;13.500;2023-04-24T15:48:57;0.87;;;0.87;;
13834;SDS011;6988;52.614;13.500;2023-04-24T15:53:51;2.00;;;0.60;;
13834;SDS011;6988;52.614;13.500;2023-04-24T15:58:43;1.80;;;0.90;;
13834;SDS011;6988;52.614;13.500;2023-04-24T16:03:35;1.93;;;0.90;;
13834;SDS011;6988;52.614;13.500;2023-04-24T16:08:30;2.10;;;1.10;;
13834;SDS011;6988;52.614;13.500;2023-04-24T16:13:23;2.53;;;1.00;;
13834;SDS011;6988;52.614;13.500;2023-04-24T16:18:15;2.57;;;1.07;;
13834;SDS011;6988;52.614;13.500;2023-04-24T16:23:07;2.67;;;0.90;;
13834;SDS011;6988;52.614;13.500;2023-04-24T16:28:00;1.50;;;0.90;;
13834;SDS011;6988;52.614;13.500;2023-04-24T16:32:53;1.73;;;1.20;;
13834;SDS011;6988;52.614;13.500;2023-04-24T16:37:45;1.77;;;1.10;;
13834;SDS011;6988;52.614;13.500;2023-04-24T16:42:37;1.97;;;0.90;;
13834;SDS011;6988;52.614;13.500;2023-04-24T16:47:29;1.20;;;0.80;;
13834;SDS011;6988;52.614;13.500;2023-04-24T16:52:23;3.07;;;0.97;;
13834;SDS011;6988;52.614;13.500;2023-04-24T16:57:16;1.57;;;0.80;;
13834;SDS011;6988;52.614;13.500;2023-04-24T17:02:14;4.50;;;1.20;;
13834;SDS011;6988;52.614;13.500;2023-04-24T17:07:06;2.17;;;0.90;;
13834;SDS011;6988;52.614;13.500;2023-04-24T17:12:01;2.23;;;1.10;;
13834;SDS011;6988;52.614;13.500;2023-04-24T17:16:56;1.90;;;1.00;;
13834;SDS011;6988;52.614;13.500;2023-04-24T17:21:53;2.70;;;1.13;;
13834;SDS011;6988;52.614;13.500;2023-04-24T17:26:46;1.33;;;1.10;;
13834;SDS011;6988;52.614;13.500;2023-04-24T17:31:40;1.30;;;1.20;;
13834;SDS011;6988;52.614;13.500;2023-04-24T17:36:33;1.10;;;0.90;;
13834;SDS011;6988;52.614;13.500;2023-04-24T17:41:24;1.93;;;1.20;;
13834;SDS011;6988;52.614;13.500;2023-04-24T17:46:23;2.00;;;1.10;;
13834;SDS011;6988;52.614;13.500;2023-04-24T17:51:16;1.40;;;1.03;;
13834;SDS011;6988;52.614;13.500;2023-04-24T17:56:08;1.50;;;1.17;;
13834;SDS011;6988;52.614;13.500;2023-04-24T18:01:00;1.80;;;1.20;;
13834;SDS011;6988;52.614;13.500;2023-04-24T18:05:52;2.87;;;1.30;;
13834;SDS011;6988;52.614;13.500;2023-04-24T18:10:46;1.93;;;1.10;;
13834;SDS011;6988;52.614;13.500;2023-04-24T18:15:37;1.87;;;1.23;;
13834;SDS011;6988;52.614;13.500;2023-04-24T18:20:32;2.63;;;1.20;;
13834;SDS011;6988;52.614;13.500;2023-04-24T18:25:24;2.93;;;1.03;;
13834;SDS011;6988;52.614;13.500;2023-04-24T18:30:18;1.50;;;0.97;;
13834;SDS011;6988;52.614;13.500;2023-04-24T18:35:10;0.50;;;0.40;;
13834;SDS011;6988;52.614;13.500;2023-04-24T18:40:02;1.27;;;0.40;;
13834;SDS011;6988;52.614;13.500;2023-04-24T18:44:55;0.40;;;0.30;;
13834;SDS011;6988;52.614;13.500;2023-04-24T18:49:51;1.23;;;0.50;;
13834;SDS011;6988;52.614;13.500;2023-04-24T18:54:43;1.23;;;0.40;;
13834;SDS011;6988;52.614;13.500;2023-04-24T18:59:36;0.60;;;0.40;;
13834;SDS011;6988;52.614;13.500;2023-04-24T19:04:28;1.83;;;0.53;;
13834;SDS011;6988;52.614;13.500;2023-04-24T19:09:21;0.40;;;0.40;;
13834;SDS011;6988;52.614;13.500;2023-04-24T19:14:13;3.53;;;0.47;;
13834;SDS011;6988;52.614;13.500;2023-04-24T19:19:05;1.40;;;0.60;;
13834;SDS011;6988;52.614;13.500;2023-04-24T19:23:57;0.50;;;0.50;;
13834;SDS011;6988;52.614;13.500;2023-04-24T19:28:50;0.73;;;0.60;;
13834;SDS011;6988;52.614;13.500;2023-04-24T19:33:46;1.00;;;0.77;;
13834;SDS011;6988;52.614;13.500;2023-04-24T19:38:38;1.77;;;0.70;;
13834;SDS011;6988;52.614;13.500;2023-04-24T19:43:30;0.83;;;0.70;;
13834;SDS011;6988;52.614;13.500;2023-04-24T19:48:23;1.27;;;0.80;;
13834;SDS011;6988;52.614;13.500;2023-04-24T19:53:16;1.37;;;0.80;;
13834;SDS011;6988;52.614;13.500;2023-04-24T19:58:07;1.17;;;0.90;;
13834;SDS011;6988;52.614;13.500;2023-04-24T20:02:59;1.07;;;0.77;;
13834;SDS011;6988;52.614;13.500;2023-04-24T20:07:53;1.50;;;0.80;;
13834;SDS011;6988;52.614;13.500;2023-04-24T20:12:44;1.37;;;0.83;;
13834;SDS011;6988;52.614;13.500;2023-04-24T20:17:36;1.20;;;0.90;;
13834;SDS011;6988;52.614;13.500;2023-04-24T20:22:28;1.03;;;0.80;;
13834;SDS011;6988;52.614;13.500;2023-04-24T20:27:22;1.33;;;0.90;;
13834;SDS011;6988;52.614;13.500;2023-04-24T20:32:14;1.47;;;1.00;;
13834;SDS011;6988;52.614;13.500;2023-04-24T20:37:06;1.73;;;1.17;;
13834;SDS011;6988;52.614;13.500;2023-04-24T20:41:58;1.73;;;1.40;;
13834;SDS011;6988;52.614;13.500;2023-04-24T20:46:51;1.57;;;1.20;;
13834;SDS011;6988;52.614;13.500;2023-04-24T20:51:43;2.90;;;1.47;;
13834;SDS011;6988;52.614;13.500;2023-04-24T20:56:35;2.67;;;1.67;;
13834;SDS011;6988;52.614;13.500;2023-04-24T21:01:26;3.33;;;1.80;;
13834;SDS011;6988;52.614;13.500;2023-04-24T21:06:20;2.50;;;1.60;;
13834;SDS011;6988;52.614;13.500;2023-04-24T21:11:12;2.20;;;1.50;;
13834;SDS011;6988;52.614;13.500;2023-04-24T21:16:04;3.47;;;1.90;;
13834;SDS011;6988;52.614;13.500;2023-04-24T21:20:56;3.60;;;2.00;;
13834;SDS011;6988;52.614;13.500;2023-04-24T21:25:52;4.43;;;2.10;;
13834;SDS011;6988;52.614;13.500;2023-04-24T21:30:44;4.53;;;2.13;;
13834;SDS011;6988;52.614;13.500;2023-04-24T21:35:36;3.07;;;2.13;;
13834;SDS011;6988;52.614;13.500;2023-04-24T21:40:28;4.30;;;2.20;;
13834;SDS011;6988;52.614;13.500;2023-04-24T21:45:21;4.80;;;2.70;;
13834;SDS011;6988;52.614;13.500;2023-04-24T22:04:52;6.87;;;3.73;;
13834;SDS011;6988;52.614;13.500;2023-04-24T22:09:45;6.67;;;3.60;;
13834;SDS011;6988;52.614;13.500;2023-04-24T22:14:36;4.07;;;3.03;;
13834;SDS011;6988;52.614;13.500;2023-04-24T22:19:28;5.47;;;3.40;;
13834;SDS011;6988;52.614;13.500;2023-04-24T22:24:22;4.33;;;3.80;;
13834;SDS011;6988;52.614;13.500;2023-04-24T22:29:14;4.47;;;3.67;;
13834;SDS011;6988;52.614;13.500;2023-04-24T22:34:06;5.27;;;4.17;;
13834;SDS011;6988;52.614;13.500;2023-04-24T22:38:58;5.67;;;3.90;;
13834;SDS011;6988;52.614;13.500;2023-04-24T22:43:51;4.27;;;3.30;;
13834;SDS011;6988;52.614;13.500;2023-04-24T22:48:44;5.73;;;3.60;;
13834;SDS011;6988;52.614;13.500;2023-04-24T22:53:37;5.47;;;3.50;;
13834;SDS011;6988;52.614;13.500;2023-04-24T22:58:29;5.07;;;3.60;;
13834;SDS011;6988;52.614;13.500;2023-04-24T23:03:23;5.43;;;3.43;;
13834;SDS011;6988;52.614;13.500;2023-04-24T23:08:15;6.57;;;3.43;;
13834;SDS011;6988;52.614;13.500;2023-04-24T23:13:07;6.23;;;3.97;;
13834;SDS011;6988;52.614;13.500;2023-04-24T23:17:58;4.30;;;3.40;;
13834;SDS011;6988;52.614;13.500;2023-04-24T23:22:52;6.33;;;3.97;;
13834;SDS011;6988;52.614;13.500;2023-04-24T23:27:43;5.17;;;3.87;;
13834;SDS011;6988;52.614;13.500;2023-04-24T23:32:35;6.47;;;3.97;;
13834;SDS011;6988;52.614;13.500;2023-04-24T23:37:27;6.70;;;4.60;;
13834;SDS011;6988;52.614;13.500;2023-04-24T23:42:20;6.43;;;3.77;;
13834;SDS011;6988;52.614;13.500;2023-04-24T23:47:12;5.33;;;3.63;;
13834;SDS011;6988;52.614;13.500;2023-04-24T23:52:04;5.83;;;3.20;;
13834;SDS011;6988;52.614;13.500;2023-04-24T23:56:56;5.33;;;2.80;;
